Time;durP1;ratioP1;P1;durP2;ratioP2;P2;SDS_P1;SDS_P2;PMS_P1;PMS_P2;Temp;Humidity;BMP_temperature;BMP_pressure;BME280_temperature;BME280_humidity;BME280_pressure;Samples;Min_cycle;Max_cycle;Signal;HPM_P1;HPM_P2
2022/01/01 00:00:18;;;;;;;38.92;20.42;;;13.30;99.90;;;;;;5054351;28;20075;-66
2022/01/01 00:02:44;;;;;;;37.33;19.88;;;13.20;99.90;;;;;;5054672;28;20029;-67
2022/01/01 00:05:13;;;;;;;34.05;21.48;;;13.20;99.90;;;;;;5054281;28;20386;-66
2022/01/01 00:07:39;;;;;;;34.25;21.80;;;13.20;99.90;;;;;;5055475;28;20029;-67
2022/01/01 00:10:06;;;;;;;33.38;21.55;;;13.20;99.90;;;;;;5055258;28;20041;-67
2022/01/01 00:12:32;;;;;;;39.13;23.27;;;13.20;99.90;;;;;;5055700;28;20025;-67
2022/01/01 00:14:57;;;;;;;40.15;24.42;;;13.20;99.90;;;;;;5054203;28;20036;-66
2022/01/01 00:17:23;;;;;;;42.30;24.92;;;13.20;99.90;;;;;;5054665;28;20035;-68
2022/01/01 00:19:48;;;;;;;46.42;24.98;;;13.20;99.90;;;;;;5055587;28;20473;-67
2022/01/01 00:22:14;;;;;;;44.10;25.70;;;13.20;99.90;;;;;;5037386;28;20124;-67
2022/01/01 00:24:39;;;;;;;49.40;26.42;;;13.20;99.90;;;;;;5037919;28;20092;-67
2022/01/01 00:27:05;;;;;;;44.25;27.40;;;13.10;99.90;;;;;;5055645;28;20029;-67
2022/01/01 00:29:30;;;;;;;49.97;27.08;;;13.10;99.90;;;;;;5053695;28;20128;-67
2022/01/01 00:31:56;;;;;;;48.85;27.30;;;13.10;99.90;;;;;;5055584;28;20082;-67
2022/01/01 00:34:21;;;;;;;45.03;28.60;;;13.10;99.90;;;;;;5054339;28;20039;-67
2022/01/01 00:36:47;;;;;;;48.35;29.20;;;13.10;99.90;;;;;;5055469;28;20100;-67
2022/01/01 00:39:12;;;;;;;48.75;30.15;;;13.10;99.90;;;;;;5053992;28;20029;-67
2022/01/01 00:41:38;;;;;;;50.67;29.35;;;13.10;99.90;;;;;;5053917;28;20036;-67
2022/01/01 00:44:04;;;;;;;52.45;31.35;;;13.10;99.90;;;;;;5036933;28;20036;-66
2022/01/01 00:46:30;;;;;;;53.47;31.05;;;13.10;99.90;;;;;;5053853;28;20390;-68
2022/01/01 00:48:55;;;;;;;50.03;31.15;;;13.10;99.90;;;;;;5054829;28;20062;-67
2022/01/01 00:51:21;;;;;;;53.13;31.77;;;13.10;99.90;;;;;;5053733;28;20029;-67
2022/01/01 00:53:47;;;;;;;50.83;31.55;;;13.10;99.90;;;;;;5036003;28;20033;-67
2022/01/01 00:56:13;;;;;;;48.08;30.77;;;13.10;99.90;;;;;;5053782;28;20024;-67
2022/01/01 00:58:38;;;;;;;59.38;33.63;;;13.10;99.90;;;;;;5055032;28;20103;-67
2022/01/01 01:01:05;;;;;;;58.63;34.97;;;13.10;99.90;;;;;;5037436;28;20021;-67
2022/01/01 01:03:31;;;;;;;51.58;31.63;;;13.10;99.90;;;;;;5054978;28;20021;-66
2022/01/01 01:05:59;;;;;;;52.42;30.85;;;13.10;99.90;;;;;;5054364;28;20470;-67
2022/01/01 01:08:25;;;;;;;55.05;31.75;;;13.10;99.90;;;;;;5037350;28;20029;-67
2022/01/01 01:10:50;;;;;;;52.20;30.63;;;13.00;99.90;;;;;;5036419;28;20398;-67
2022/01/01 01:13:16;;;;;;;52.85;31.60;;;13.00;99.90;;;;;;5053601;28;20057;-67
2022/01/01 01:15:43;;;;;;;55.58;32.05;;;13.00;99.90;;;;;;5054728;28;20032;-67
2022/01/01 01:18:09;;;;;;;54.95;30.48;;;13.00;99.90;;;;;;5054153;28;20546;-67
2022/01/01 01:20:35;;;;;;;50.90;31.73;;;13.00;99.90;;;;;;5053140;28;20482;-67
2022/01/01 01:23:01;;;;;;;56.00;32.05;;;13.00;99.90;;;;;;5054299;28;20036;-67
2022/01/01 01:25:29;;;;;;;54.15;30.30;;;13.00;99.90;;;;;;5053129;28;20482;-67
2022/01/01 01:27:55;;;;;;;56.10;30.83;;;13.10;99.90;;;;;;5052687;28;20028;-67
2022/01/01 01:30:22;;;;;;;54.63;30.90;;;13.00;99.90;;;;;;5054132;28;20029;-67
2022/01/01 01:32:48;;;;;;;52.28;29.83;;;13.00;99.90;;;;;;5054183;28;20017;-67
2022/01/01 01:35:14;;;;;;;58.67;30.38;;;13.00;99.90;;;;;;5054384;28;20489;-67
2022/01/01 01:37:40;;;;;;;63.75;32.60;;;13.00;99.90;;;;;;5054115;28;20106;-67
2022/01/01 01:40:07;;;;;;;54.88;32.22;;;13.00;99.90;;;;;;5053171;28;20083;-67
2022/01/01 01:42:34;;;;;;;50.40;28.65;;;13.00;99.90;;;;;;5054013;28;20025;-67
2022/01/01 01:45:02;;;;;;;56.10;29.02;;;13.00;99.90;;;;;;5052831;28;20104;-67
2022/01/01 01:47:30;;;;;;;52.70;29.58;;;13.10;99.90;;;;;;5053932;28;20047;-67
2022/01/01 01:49:57;;;;;;;52.70;29.45;;;13.10;99.90;;;;;;5052723;28;20106;-68
2022/01/01 01:52:24;;;;;;;52.35;27.67;;;13.00;99.90;;;;;;5035743;28;20067;-67
2022/01/01 01:54:50;;;;;;;53.42;30.40;;;13.00;99.90;;;;;;5052711;28;20014;-67
2022/01/01 01:57:16;;;;;;;51.35;28.35;;;13.00;99.90;;;;;;5053812;28;20468;-67
2022/01/01 01:59:44;;;;;;;52.75;28.10;;;13.00;99.90;;;;;;5054011;28;20466;-67
2022/01/01 02:02:09;;;;;;;49.33;25.73;;;12.90;99.90;;;;;;5036201;28;20067;-67
2022/01/01 02:04:35;;;;;;;43.50;25.17;;;12.90;99.90;;;;;;5052048;28;20026;-68
2022/01/01 02:07:01;;;;;;;43.97;23.92;;;12.90;99.90;;;;;;5035625;28;20116;-67
2022/01/01 02:09:27;;;;;;;49.10;25.05;;;12.90;99.90;;;;;;5052189;28;20043;-67
2022/01/01 02:11:53;;;;;;;51.15;25.13;;;12.90;99.90;;;;;;5035530;28;20025;-66
2022/01/01 02:14:34;;;;;;;40.75;22.83;;;12.90;99.90;;;;;;5052620;28;20028;-67
2022/01/01 02:19:59;;;;;;;46.22;24.45;;;12.90;99.90;;;;;;5112226;27;20438;-67
2022/01/01 02:22:27;;;;;;;43.63;23.60;;;12.90;99.90;;;;;;5111712;28;20023;-68
2022/01/01 02:24:52;;;;;;;41.25;21.98;;;12.90;99.90;;;;;;5110474;28;20042;-66
2022/01/01 02:27:18;;;;;;;44.28;22.38;;;12.90;99.90;;;;;;5111595;28;20465;-68
2022/01/01 02:29:43;;;;;;;46.22;22.30;;;12.90;99.90;;;;;;5110062;28;20481;-67
2022/01/01 02:32:15;;;;;;;48.63;22.48;;;12.90;99.90;;;;;;5110785;28;20028;-68
2022/01/01 02:34:42;;;;;;;47.53;22.45;;;12.90;99.90;;;;;;5111730;28;20027;-67
2022/01/01 02:37:07;;;;;;;50.78;23.13;;;12.90;99.90;;;;;;5111150;28;20020;-68
2022/01/01 02:39:34;;;;;;;45.38;22.02;;;12.90;99.90;;;;;;5111644;28;20028;-67
2022/01/01 02:41:59;;;;;;;45.10;21.70;;;12.80;99.90;;;;;;5111606;28;20028;-67
2022/01/01 02:44:28;;;;;;;42.22;22.20;;;12.80;99.90;;;;;;5110536;28;20583;-67
2022/01/01 02:46:55;;;;;;;45.28;21.73;;;12.90;99.90;;;;;;5109658;28;20119;-67
2022/01/01 02:49:20;;;;;;;43.47;21.10;;;12.90;99.90;;;;;;5110273;28;20043;-67
2022/01/01 02:51:46;;;;;;;39.97;20.40;;;12.90;99.90;;;;;;5109624;28;20023;-68
2022/01/01 02:54:11;;;;;;;47.55;20.30;;;12.90;99.90;;;;;;5111076;28;20050;-67
2022/01/01 02:56:37;;;;;;;42.00;20.52;;;12.90;99.90;;;;;;5109876;28;20453;-67
2022/01/01 02:59:03;;;;;;;35.08;19.08;;;12.90;99.90;;;;;;5126792;28;20034;-67
2022/01/01 03:01:29;;;;;;;37.33;19.85;;;12.90;99.90;;;;;;5110669;28;20031;-67
2022/01/01 03:03:55;;;;;;;38.60;19.58;;;12.80;99.90;;;;;;5110122;28;20020;-67
2022/01/01 03:06:21;;;;;;;44.28;19.20;;;12.80;99.90;;;;;;5092388;28;20477;-67
2022/01/01 03:08:51;;;;;;;40.45;20.00;;;12.80;99.90;;;;;;5111118;28;20027;-67
2022/01/01 03:11:17;;;;;;;41.47;19.10;;;12.80;99.90;;;;;;5109222;28;20400;-67
2022/01/01 03:13:43;;;;;;;40.60;18.95;;;12.80;99.90;;;;;;5109133;28;20024;-67
2022/01/01 03:16:09;;;;;;;43.92;19.17;;;12.80;99.90;;;;;;5110689;28;20028;-67
2022/01/01 03:18:35;;;;;;;40.75;18.65;;;12.80;99.90;;;;;;5110199;28;20093;-68
2022/01/01 03:21:00;;;;;;;38.67;17.58;;;12.80;99.90;;;;;;5110842;28;20369;-68
2022/01/01 03:23:26;;;;;;;35.95;17.77;;;12.80;99.90;;;;;;5108962;28;20023;-67
2022/01/01 03:25:51;;;;;;;37.80;17.95;;;12.80;99.90;;;;;;5110462;28;20027;-68
2022/01/01 03:28:17;;;;;;;40.75;18.13;;;12.80;99.90;;;;;;5110129;28;20032;-67
2022/01/01 03:30:43;;;;;;;43.70;17.77;;;12.80;99.90;;;;;;5098596;28;20419;-67
2022/01/01 03:33:08;;;;;;;36.45;16.95;;;12.70;99.90;;;;;;5097030;28;20058;-67
2022/01/01 03:35:34;;;;;;;37.90;17.17;;;12.80;99.90;;;;;;5096981;28;20028;-67
2022/01/01 03:37:59;;;;;;;37.33;17.13;;;12.70;99.90;;;;;;5096302;28;20059;-67
2022/01/01 03:40:25;;;;;;;35.08;16.52;;;12.70;99.90;;;;;;5112089;28;20048;-67
2022/01/01 03:42:51;;;;;;;33.05;17.33;;;12.70;99.90;;;;;;5096581;28;20024;-67
2022/01/01 03:45:16;;;;;;;39.22;16.73;;;12.70;99.90;;;;;;5078216;28;20063;-67
2022/01/01 03:47:42;;;;;;;38.75;16.70;;;12.80;99.90;;;;;;5096738;28;20032;-67
2022/01/01 03:50:07;;;;;;;36.83;17.23;;;12.80;99.90;;;;;;5094928;28;20554;-67
2022/01/01 03:52:34;;;;;;;36.17;16.70;;;12.80;99.90;;;;;;5096375;28;20055;-67
2022/01/01 03:55:00;;;;;;;40.25;16.45;;;12.80;99.90;;;;;;5096636;28;20463;-68
2022/01/01 03:57:26;;;;;;;42.58;17.63;;;12.80;99.90;;;;;;5096861;28;20032;-67
2022/01/01 03:59:51;;;;;;;35.28;16.95;;;12.80;99.90;;;;;;5096235;28;20411;-67
2022/01/01 04:02:17;;;;;;;32.25;16.35;;;12.80;99.90;;;;;;5094689;28;20027;-67
2022/01/01 04:04:42;;;;;;;36.97;16.17;;;12.80;99.90;;;;;;5095024;28;20028;-68
2022/01/01 04:07:09;;;;;;;43.63;17.23;;;12.80;99.90;;;;;;5096447;28;20404;-68
2022/01/01 04:09:35;;;;;;;34.30;16.75;;;12.80;99.90;;;;;;5096363;28;20028;-67
2022/01/01 04:12:01;;;;;;;40.40;16.65;;;12.80;99.90;;;;;;5094510;28;20030;-67
2022/01/01 04:14:26;;;;;;;42.22;17.52;;;12.80;99.90;;;;;;5077660;28;20042;-67
2022/01/01 04:16:53;;;;;;;36.50;16.30;;;12.70;99.90;;;;;;5077557;28;20028;-67
2022/01/01 04:19:21;;;;;;;32.17;16.27;;;12.70;99.90;;;;;;5095434;28;20396;-67
2022/01/01 04:21:46;;;;;;;39.67;17.35;;;12.70;99.90;;;;;;5096112;28;20522;-68
2022/01/01 04:24:12;;;;;;;35.13;17.25;;;12.70;99.90;;;;;;5096058;28;20028;-67
2022/01/01 04:26:37;;;;;;;42.35;18.10;;;12.70;99.90;;;;;;5111328;28;20032;-67
2022/01/01 04:29:03;;;;;;;38.13;16.63;;;12.70;99.90;;;;;;5094803;28;20075;-67
2022/01/01 04:31:28;;;;;;;44.17;17.58;;;12.70;99.90;;;;;;5094093;28;20034;-67
2022/01/01 04:33:54;;;;;;;38.28;17.50;;;12.70;99.90;;;;;;5078051;28;20024;-67
2022/01/01 04:36:21;;;;;;;39.10;16.95;;;12.60;99.90;;;;;;5094656;28;20366;-67
2022/01/01 04:38:46;;;;;;;38.88;16.67;;;12.60;99.90;;;;;;5093857;28;20077;-67
2022/01/01 04:41:14;;;;;;;37.22;16.92;;;12.70;99.90;;;;;;5093271;28;20028;-67
2022/01/01 04:43:41;;;;;;;37.70;16.02;;;12.70;99.90;;;;;;5095387;28;20028;-67
2022/01/01 04:46:07;;;;;;;32.42;16.55;;;12.60;99.90;;;;;;5095062;28;20020;-67
2022/01/01 04:48:37;;;;;;;32.95;17.23;;;12.60;99.90;;;;;;5094134;28;20107;-67
2022/01/01 04:51:05;;;;;;;45.17;17.63;;;12.60;99.90;;;;;;5093701;28;20472;-67
2022/01/01 04:53:30;;;;;;;35.22;16.85;;;12.70;99.90;;;;;;5094504;28;20138;-67
2022/01/01 04:55:56;;;;;;;39.05;17.35;;;12.70;99.90;;;;;;5095127;28;20049;-67
2022/01/01 04:58:21;;;;;;;37.65;17.05;;;12.70;99.90;;;;;;5093523;28;20035;-67
2022/01/01 05:00:47;;;;;;;34.72;17.15;;;12.70;99.90;;;;;;5094815;28;20024;-67
2022/01/01 05:03:12;;;;;;;49.33;17.95;;;12.60;99.90;;;;;;5094765;28;20020;-67
2022/01/01 05:05:39;;;;;;;38.70;17.63;;;12.60;99.90;;;;;;5095264;28;20411;-68
2022/01/01 05:08:04;;;;;;;43.33;17.50;;;12.70;99.90;;;;;;5094930;28;20439;-67
2022/01/01 05:10:30;;;;;;;38.65;17.23;;;12.70;99.90;;;;;;5093690;28;20028;-67
2022/01/01 05:12:55;;;;;;;39.28;17.08;;;12.60;99.90;;;;;;5093659;28;20032;-67
2022/01/01 05:15:21;;;;;;;36.80;17.05;;;12.70;99.90;;;;;;5076396;28;20551;-68
2022/01/01 05:17:46;;;;;;;38.38;17.33;;;12.70;99.90;;;;;;5093492;28;20044;-67
2022/01/01 05:20:12;;;;;;;33.65;16.98;;;12.70;99.90;;;;;;5110483;28;20488;-68
2022/01/01 05:22:37;;;;;;;41.40;17.80;;;12.70;99.90;;;;;;5076276;28;20377;-68
2022/01/01 05:25:05;;;;;;;42.40;18.25;;;12.70;99.90;;;;;;5093420;28;20028;-68
2022/01/01 05:27:34;;;;;;;39.03;18.10;;;12.70;99.90;;;;;;5094557;28;20102;-68
2022/01/01 05:30:00;;;;;;;38.75;18.20;;;12.80;99.90;;;;;;5093685;28;20358;-67
2022/01/01 05:32:26;;;;;;;37.88;17.17;;;12.80;99.90;;;;;;5076189;28;20491;-67
2022/01/01 05:34:52;;;;;;;38.03;16.80;;;12.80;99.90;;;;;;5076062;28;20024;-68
2022/01/01 05:37:17;;;;;;;43.83;17.00;;;12.80;99.90;;;;;;5110187;28;20020;-67
2022/01/01 05:39:42;;;;;;;39.47;17.77;;;12.80;99.90;;;;;;5075936;28;20031;-67
2022/01/01 05:42:08;;;;;;;39.97;16.65;;;12.80;99.90;;;;;;5092923;28;20052;-67
2022/01/01 05:44:34;;;;;;;35.05;17.13;;;12.80;99.90;;;;;;5093404;28;20035;-68
2022/01/01 05:47:00;;;;;;;39.92;17.17;;;12.80;99.90;;;;;;5093128;28;20031;-68
2022/01/01 05:49:25;;;;;;;38.13;16.15;;;12.80;99.90;;;;;;5094567;28;20027;-67
2022/01/01 05:51:51;;;;;;;35.90;17.08;;;12.70;99.90;;;;;;5094501;28;20024;-68
2022/01/01 05:54:16;;;;;;;39.40;16.80;;;12.70;99.90;;;;;;5092813;28;20381;-70
2022/01/01 05:56:42;;;;;;;34.80;16.98;;;12.70;99.90;;;;;;5075735;28;20028;-70
2022/01/01 05:59:07;;;;;;;36.30;17.63;;;12.70;99.90;;;;;;5076276;28;20101;-68
2022/01/01 06:01:33;;;;;;;34.50;16.20;;;12.70;99.90;;;;;;5093172;28;20526;-67
2022/01/01 06:03:58;;;;;;;36.05;16.65;;;12.70;99.90;;;;;;5075722;28;20046;-67
2022/01/01 06:06:24;;;;;;;36.10;16.23;;;12.70;99.90;;;;;;5092485;28;20110;-68
2022/01/01 06:08:49;;;;;;;34.85;15.68;;;12.70;99.90;;;;;;5092825;28;20028;-68
2022/01/01 06:11:15;;;;;;;31.02;14.75;;;12.70;99.90;;;;;;5092980;28;20025;-68
2022/01/01 06:13:40;;;;;;;32.50;15.15;;;12.70;99.90;;;;;;5094200;28;20107;-67
2022/01/01 06:16:06;;;;;;;37.97;14.77;;;12.70;99.90;;;;;;5093025;28;20465;-68
2022/01/01 06:18:31;;;;;;;34.72;14.95;;;12.70;99.90;;;;;;5092319;28;20040;-68
2022/01/01 06:20:57;;;;;;;33.92;14.30;;;12.70;99.90;;;;;;5093852;28;20024;-67
2022/01/01 06:23:23;;;;;;;30.42;14.45;;;12.70;99.90;;;;;;5092483;28;20016;-68
2022/01/01 06:25:48;;;;;;;31.88;14.32;;;12.70;99.90;;;;;;5092684;28;20427;-68
2022/01/01 06:28:14;;;;;;;33.85;15.27;;;12.70;99.90;;;;;;5094032;28;20499;-67
2022/01/01 06:30:39;;;;;;;35.05;15.07;;;12.80;99.90;;;;;;5092594;28;20552;-67
2022/01/01 06:33:14;;;;;;;30.58;15.07;;;12.70;99.90;;;;;;5094040;28;20039;-67
2022/01/01 06:35:41;;;;;;;35.83;15.23;;;12.80;99.90;;;;;;5093433;28;20070;-67
2022/01/01 06:38:08;;;;;;;30.75;15.32;;;12.80;99.90;;;;;;5093591;28;20024;-68
2022/01/01 06:40:34;;;;;;;31.58;15.32;;;12.80;99.90;;;;;;5075477;28;20035;-68
2022/01/01 06:43:00;;;;;;;36.67;14.50;;;12.80;99.90;;;;;;5092141;28;20024;-68
2022/01/01 06:45:25;;;;;;;30.55;15.00;;;12.80;99.90;;;;;;5093632;28;20487;-68
2022/01/01 06:47:51;;;;;;;30.20;12.77;;;12.80;99.90;;;;;;5093002;28;20028;-67
2022/01/01 06:50:16;;;;;;;31.88;12.98;;;12.80;99.90;;;;;;5093885;28;20034;-67
2022/01/01 06:52:44;;;;;;;28.25;13.88;;;12.80;99.90;;;;;;5092683;28;20032;-68
2022/01/01 06:55:11;;;;;;;23.83;11.85;;;12.80;99.90;;;;;;5093551;28;20552;-67
2022/01/01 06:57:36;;;;;;;33.65;12.43;;;12.80;99.90;;;;;;5093740;28;20028;-68
2022/01/01 07:00:03;;;;;;;28.60;12.57;;;12.80;99.90;;;;;;5091950;28;20354;-67
2022/01/01 07:02:29;;;;;;;31.17;13.77;;;12.80;99.90;;;;;;5093484;28;20048;-68
2022/01/01 07:04:54;;;;;;;35.80;13.20;;;12.80;99.90;;;;;;5094757;28;20028;-67
2022/01/01 07:07:20;;;;;;;29.20;12.95;;;12.80;99.90;;;;;;5078862;28;20024;-67
2022/01/01 07:09:45;;;;;;;30.00;13.48;;;12.80;99.90;;;;;;5096044;28;20462;-68
2022/01/01 07:12:11;;;;;;;30.08;13.25;;;12.80;99.90;;;;;;5096898;28;20032;-67
2022/01/01 07:14:36;;;;;;;30.08;15.18;;;12.70;99.90;;;;;;5096251;28;20028;-67
2022/01/01 07:17:02;;;;;;;36.90;14.43;;;12.80;99.90;;;;;;5095548;28;20024;-67
2022/01/01 07:19:27;;;;;;;34.22;15.32;;;12.90;99.90;;;;;;5095449;28;20047;-67
2022/01/01 07:21:55;;;;;;;39.35;15.75;;;12.90;99.90;;;;;;5078579;28;20025;-67
2022/01/01 07:24:21;;;;;;;31.73;13.82;;;12.80;99.90;;;;;;5096950;28;20013;-68
2022/01/01 07:26:46;;;;;;;23.27;12.93;;;12.80;99.90;;;;;;5096933;28;20030;-68
2022/01/01 07:29:12;;;;;;;32.85;13.40;;;12.90;99.90;;;;;;5095687;28;20028;-68
2022/01/01 07:31:37;;;;;;;27.73;13.32;;;12.80;99.90;;;;;;5096822;28;20032;-67
2022/01/01 07:34:03;;;;;;;28.75;11.73;;;12.80;99.90;;;;;;5095353;28;20107;-67
2022/01/01 07:36:28;;;;;;;26.35;12.07;;;12.90;99.90;;;;;;5095891;28;20024;-67
2022/01/01 07:38:54;;;;;;;24.27;11.30;;;12.80;99.90;;;;;;5096590;28;20028;-67
2022/01/01 07:41:19;;;;;;;25.55;10.43;;;12.90;99.90;;;;;;5095797;28;20050;-68
2022/01/01 07:43:45;;;;;;;22.95;9.40;;;12.90;99.90;;;;;;5096906;28;20024;-67
2022/01/01 07:46:10;;;;;;;19.02;8.80;;;12.90;99.90;;;;;;5078211;28;20024;-67
2022/01/01 07:48:36;;;;;;;21.95;8.98;;;13.00;99.90;;;;;;5095656;28;20369;-67
2022/01/01 07:51:01;;;;;;;22.55;10.05;;;12.90;99.90;;;;;;5096410;28;20028;-67
2022/01/01 07:53:27;;;;;;;25.75;8.98;;;13.00;99.90;;;;;;5096709;28;20500;-67
2022/01/01 07:55:52;;;;;;;21.33;8.18;;;13.00;99.90;;;;;;5095215;28;20488;-67
2022/01/01 07:58:18;;;;;;;22.27;8.55;;;13.00;99.90;;;;;;5096309;28;20120;-67
2022/01/01 08:00:43;;;;;;;24.00;8.27;;;13.00;99.90;;;;;;5094727;28;20515;-67
2022/01/01 08:03:11;;;;;;;20.05;7.80;;;13.00;99.90;;;;;;5095078;28;20479;-67
2022/01/01 08:05:37;;;;;;;20.65;8.57;;;13.00;99.90;;;;;;5095339;28;20020;-67
2022/01/01 08:08:04;;;;;;;24.25;8.60;;;13.00;99.90;;;;;;5096449;28;20051;-67
2022/01/01 08:10:30;;;;;;;17.35;7.88;;;13.10;99.90;;;;;;5095245;28;20024;-67
2022/01/01 08:12:56;;;;;;;20.92;7.97;;;13.10;99.90;;;;;;5094551;28;20070;-67
2022/01/01 08:15:21;;;;;;;23.42;7.88;;;13.00;99.90;;;;;;5094681;28;20055;-67
2022/01/01 08:17:47;;;;;;;20.50;8.43;;;13.10;99.90;;;;;;5094449;28;20105;-67
2022/01/01 08:20:13;;;;;;;24.08;8.02;;;13.10;99.90;;;;;;5094412;28;20377;-67
2022/01/01 08:22:39;;;;;;;22.48;8.15;;;13.10;99.90;;;;;;5077508;28;20381;-67
2022/01/01 08:25:04;;;;;;;18.35;8.00;;;13.00;99.90;;;;;;5077522;28;20055;-67
2022/01/01 08:27:30;;;;;;;22.30;8.00;;;13.10;99.90;;;;;;5096048;28;20124;-67
2022/01/01 08:29:55;;;;;;;19.90;7.03;;;13.10;99.90;;;;;;5096034;28;20043;-67
2022/01/01 08:32:21;;;;;;;22.92;7.15;;;13.00;99.90;;;;;;5094489;28;20469;-67
2022/01/01 08:34:46;;;;;;;14.52;7.22;;;13.00;99.90;;;;;;5094076;28;20069;-67
2022/01/01 08:37:12;;;;;;;18.63;7.07;;;13.10;99.90;;;;;;5095841;28;20334;-67
2022/01/01 08:39:38;;;;;;;15.68;6.95;;;13.10;99.90;;;;;;5095520;28;20028;-67
2022/01/01 08:42:05;;;;;;;20.10;8.02;;;13.10;99.90;;;;;;5094279;28;20028;-67
2022/01/01 08:44:31;;;;;;;15.40;6.97;;;13.10;99.90;;;;;;5077238;28;20362;-67
2022/01/01 08:46:57;;;;;;;21.35;7.22;;;13.10;99.90;;;;;;5094241;28;20020;-67
2022/01/01 08:49:23;;;;;;;18.67;7.38;;;13.10;99.90;;;;;;5095595;28;20467;-67
2022/01/01 08:51:48;;;;;;;18.77;7.15;;;13.20;99.90;;;;;;5093790;28;20103;-67
2022/01/01 08:54:14;;;;;;;15.90;6.68;;;13.20;99.90;;;;;;5095498;28;20024;-67
2022/01/01 08:56:40;;;;;;;25.75;6.93;;;13.20;99.90;;;;;;5094922;28;20032;-67
2022/01/01 08:59:06;;;;;;;16.58;6.80;;;13.20;99.90;;;;;;5095091;28;20107;-67
2022/01/01 09:01:32;;;;;;;13.85;6.63;;;13.30;99.90;;;;;;5093921;28;20504;-67
2022/01/01 09:03:58;;;;;;;18.35;6.60;;;13.30;99.90;;;;;;5094360;28;20021;-67
2022/01/01 09:06:24;;;;;;;19.35;6.18;;;13.30;99.90;;;;;;5076597;28;20115;-67
2022/01/01 09:08:50;;;;;;;14.70;6.28;;;13.30;99.90;;;;;;5095266;28;20142;-67
2022/01/01 09:11:15;;;;;;;19.27;6.90;;;13.30;99.90;;;;;;5095207;28;20103;-68
2022/01/01 09:13:43;;;;;;;15.75;5.78;;;13.30;99.90;;;;;;5094581;28;20385;-67
2022/01/01 09:16:11;;;;;;;17.75;6.05;;;13.30;99.90;;;;;;5094555;28;20473;-67
2022/01/01 09:18:38;;;;;;;15.60;6.25;;;13.40;99.90;;;;;;5094489;28;20040;-67
2022/01/01 09:21:03;;;;;;;15.35;5.50;;;13.40;99.90;;;;;;5093194;28;20016;-67
2022/01/01 09:23:29;;;;;;;18.58;6.47;;;13.30;99.90;;;;;;5093166;28;20046;-67
2022/01/01 09:25:54;;;;;;;16.58;5.68;;;13.30;99.90;;;;;;5093099;28;20066;-67
2022/01/01 09:28:20;;;;;;;18.30;6.55;;;13.40;99.90;;;;;;5092894;28;20035;-67
2022/01/01 09:30:45;;;;;;;17.13;5.63;;;13.40;99.90;;;;;;5093627;28;20031;-67
2022/01/01 09:33:12;;;;;;;13.23;5.60;;;13.50;99.90;;;;;;5093105;28;20028;-67
2022/01/01 09:35:38;;;;;;;11.45;5.43;;;13.50;99.90;;;;;;5094785;28;20020;-67
2022/01/01 09:38:03;;;;;;;14.70;5.78;;;13.60;99.90;;;;;;5093196;28;20047;-67
2022/01/01 09:40:31;;;;;;;14.10;5.47;;;13.60;99.90;;;;;;5092872;28;20035;-67
2022/01/01 09:42:58;;;;;;;15.73;5.38;;;13.70;99.90;;;;;;5092934;28;20021;-67
2022/01/01 09:45:23;;;;;;;14.55;4.53;;;13.80;99.90;;;;;;5092818;28;20031;-67
2022/01/01 09:47:50;;;;;;;13.27;4.80;;;13.80;99.90;;;;;;5094291;28;20024;-67
2022/01/01 09:50:16;;;;;;;9.98;4.47;;;13.90;99.90;;;;;;5094538;28;20028;-67
2022/01/01 09:52:41;;;;;;;15.88;4.55;;;14.00;99.90;;;;;;5094196;28;20464;-67
2022/01/01 09:55:09;;;;;;;12.68;4.20;;;14.10;99.90;;;;;;5094192;28;20024;-67
2022/01/01 09:57:34;;;;;;;16.88;4.43;;;14.10;99.90;;;;;;5092494;28;20031;-67
2022/01/01 10:00:00;;;;;;;13.07;4.82;;;14.10;99.90;;;;;;5093805;28;20028;-67
2022/01/01 10:02:25;;;;;;;15.82;4.93;;;14.20;99.90;;;;;;5092577;28;20481;-67
2022/01/01 10:04:52;;;;;;;17.83;5.47;;;14.10;99.90;;;;;;5092545;28;20020;-67
2022/01/01 10:07:27;;;;;;;17.63;4.90;;;14.20;99.90;;;;;;5075887;28;20024;-67
2022/01/01 10:09:52;;;;;;;14.68;5.25;;;14.30;99.90;;;;;;5092520;28;20036;-67
2022/01/01 10:12:19;;;;;;;11.20;4.25;;;14.30;99.90;;;;;;5092412;28;20024;-67
2022/01/01 10:14:47;;;;;;;15.30;5.15;;;14.30;99.90;;;;;;5075544;28;20035;-67
2022/01/01 10:17:14;;;;;;;14.55;4.50;;;14.30;99.90;;;;;;5093948;28;20429;-68
2022/01/01 10:19:41;;;;;;;13.93;4.60;;;14.40;99.90;;;;;;5092315;28;20059;-67
2022/01/01 10:22:07;;;;;;;15.23;5.10;;;14.50;99.90;;;;;;5092687;28;20027;-67
2022/01/01 10:27:42;;;;;;;13.77;4.55;;;14.40;99.90;;;;;;5092281;28;20059;-67
2022/01/01 10:27:49;;;;;;;15.30;4.72;;;14.50;99.90;;;;;;5092396;28;20464;-67
2022/01/01 10:30:04;;;;;;;11.90;3.95;;;14.50;99.90;;;;;;5093337;28;20016;-67
2022/01/01 10:32:29;;;;;;;14.63;4.65;;;14.50;99.90;;;;;;5092208;28;20115;-67
2022/01/01 10:34:55;;;;;;;11.85;4.50;;;14.40;99.90;;;;;;5092228;28;20056;-67
2022/01/01 10:37:28;;;;;;;14.95;4.85;;;14.40;99.90;;;;;;5093707;28;20020;-67
2022/01/01 10:39:54;;;;;;;;;;;14.40;99.90;;;;;;5094271;28;20024;-67
2022/01/01 10:42:20;;;;;;;12.23;4.43;;;14.30;99.90;;;;;;5098078;28;19908;-67
2022/01/01 10:44:49;;;;;;;11.02;4.30;;;14.30;99.90;;;;;;5096309;28;20065;-67
2022/01/01 10:47:19;;;;;;;10.85;4.05;;;14.30;99.90;;;;;;5097706;28;20028;-67
2022/01/01 10:52:29;;;;;;;12.30;4.35;;;14.20;99.90;;;;;;5097564;28;20028;-68
2022/01/01 10:54:58;;;;;;;13.85;4.35;;;14.20;99.90;;;;;;5097488;28;20023;-67
2022/01/01 10:57:36;;;;;;;8.55;3.05;;;14.30;99.90;;;;;;5097793;28;20369;-67
2022/01/01 11:00:08;;;;;;;16.27;4.88;;;14.30;99.90;;;;;;5097680;28;20020;-67
2022/01/01 11:02:35;;;;;;;11.13;3.70;;;14.40;99.90;;;;;;5095980;28;20020;-67
2022/01/01 11:05:03;;;;;;;12.30;3.92;;;14.40;99.90;;;;;;5097626;28;20106;-67
2022/01/01 11:07:30;;;;;;;10.65;3.60;;;14.50;99.90;;;;;;5095928;28;20409;-67
2022/01/01 11:09:57;;;;;;;8.25;3.42;;;14.40;99.90;;;;;;5097559;28;20031;-67
2022/01/01 11:12:27;;;;;;;9.18;3.60;;;14.40;99.90;;;;;;5095692;28;20020;-67
2022/01/01 11:14:53;;;;;;;10.45;3.42;;;14.40;99.90;;;;;;5095993;28;20027;-67
2022/01/01 11:17:20;;;;;;;9.98;3.50;;;14.50;99.90;;;;;;5078418;28;20048;-67
2022/01/01 11:19:46;;;;;;;16.27;3.85;;;14.50;99.90;;;;;;5078554;28;20035;-67
2022/01/01 11:22:12;;;;;;;9.52;3.92;;;14.50;99.90;;;;;;5078556;28;20024;-67
2022/01/01 11:24:40;;;;;;;12.23;3.38;;;14.60;99.90;;;;;;5095819;28;20048;-67
2022/01/01 11:27:06;;;;;;;9.45;3.22;;;14.70;99.90;;;;;;5095522;28;20024;-67
2022/01/01 11:29:34;;;;;;;12.43;3.10;;;14.80;99.90;;;;;;5096621;28;20032;-67
2022/01/01 11:32:03;;;;;;;11.13;3.25;;;14.90;99.90;;;;;;5079536;28;20036;-67
2022/01/01 11:34:31;;;;;;;10.40;3.30;;;15.00;99.90;;;;;;5095293;28;20365;-67
2022/01/01 11:36:57;;;;;;;13.52;3.85;;;15.00;99.90;;;;;;5097067;28;20024;-67
2022/01/01 11:39:24;;;;;;;10.85;3.10;;;15.10;99.90;;;;;;5078338;28;20032;-67
2022/01/01 11:41:50;;;;;;;9.98;3.38;;;15.40;99.90;;;;;;5096403;28;20027;-67
2022/01/01 11:44:32;;;;;;;8.23;3.42;;;15.60;99.90;;;;;;5095089;28;20024;-67
2022/01/01 11:47:03;;;;;;;7.10;3.07;;;15.90;99.90;;;;;;5096888;28;20016;-67
2022/01/01 11:49:29;;;;;;;9.23;3.45;;;16.20;99.90;;;;;;5095707;28;20256;-67
2022/01/01 11:51:57;;;;;;;9.25;3.33;;;16.30;99.90;;;;;;5095141;28;20036;-67
2022/01/01 11:54:26;;;;;;;7.60;2.90;;;16.20;99.90;;;;;;5094893;28;20507;-67
2022/01/01 12:05:08;;;;;;;9.73;3.00;;;16.20;99.90;;;;;;5112217;27;20727;-68
2022/01/01 12:07:44;;;;;;;9.07;3.00;;;15.90;99.90;;;;;;5110175;28;20110;-68
2022/01/01 12:10:13;;;;;;;7.93;2.80;;;15.80;99.90;;;;;;5110486;28;20023;-68
2022/01/01 12:12:56;;;;;;;9.68;2.70;;;15.80;99.90;;;;;;5110042;28;20416;-68
2022/01/01 12:15:27;;;;;;;8.02;2.75;;;15.80;99.90;;;;;;5111880;28;20429;-68
2022/01/01 12:18:14;;;;;;;11.15;3.40;;;15.80;99.90;;;;;;5111773;28;20496;-68
2022/01/01 12:20:56;;;;;;;10.43;2.75;;;15.80;99.90;;;;;;5111063;28;20051;-68
2022/01/01 12:23:24;;;;;;;6.53;2.25;;;15.80;99.90;;;;;;5109766;28;20035;-67
2022/01/01 12:25:52;;;;;;;9.52;3.22;;;15.80;99.90;;;;;;5111594;28;20457;-68
2022/01/01 12:28:22;;;;;;;4.90;2.30;;;15.90;99.90;;;;;;5111310;28;20015;-67
2022/01/01 12:31:04;;;;;;;8.30;2.65;;;16.00;99.90;;;;;;5110028;28;20028;-67
2022/01/01 12:33:47;;;;;;;8.23;2.60;;;15.90;99.90;;;;;;5111158;28;20024;-67
2022/01/01 12:36:15;;;;;;;9.73;3.20;;;15.70;99.90;;;;;;5111486;28;20047;-67
2022/01/01 12:38:51;;;;;;;10.35;2.42;;;15.70;99.90;;;;;;5111320;28;20467;-67
2022/01/01 12:41:20;;;;;;;7.57;2.33;;;15.60;99.90;;;;;;5109872;28;20031;-67